Time;durP1;ratioP1;P1;durP2;ratioP2;P2;SDS_P1;SDS_P2;PMS_P1;PMS_P2;Temp;Humidity;BMP_temperature;BMP_pressure;BME280_temperature;BME280_humidity;BME280_pressure;Samples;Min_cycle;Max_cycle;Signal;HPM_P1;HPM_P2
2021/07/25 00:01:52;;;;;;;4.03;2.37;;;18.70;98.00;;;;;;5053937;28;20943;-67
2021/07/25 00:04:19;;;;;;;4.87;2.47;;;18.70;98.10;;;;;;5053223;28;20981;-68
2021/07/25 00:06:48;;;;;;;4.07;3.43;;;18.70;98.00;;;;;;5053525;28;20432;-68
2021/07/25 00:09:15;;;;;;;4.13;2.77;;;18.70;97.80;;;;;;5053152;28;20451;-69
2021/07/25 00:11:42;;;;;;;5.83;3.50;;;18.60;97.60;;;;;;5053635;28;20433;-68
2021/07/25 00:14:12;;;;;;;3.63;3.20;;;18.70;97.90;;;;;;5053293;28;20491;-67
2021/07/25 00:16:40;;;;;;;6.40;3.17;;;18.70;98.20;;;;;;5053541;28;20432;-68
2021/07/25 00:19:09;;;;;;;9.30;3.50;;;18.70;98.10;;;;;;5052878;28;20568;-68
2021/07/25 00:21:38;;;;;;;4.10;2.90;;;18.70;98.20;;;;;;5053714;28;20449;-68
2021/07/25 00:24:07;;;;;;;5.60;3.00;;;18.60;98.20;;;;;;5053173;28;20517;-68
2021/07/25 00:26:37;;;;;;;4.43;2.27;;;18.60;98.50;;;;;;5053396;28;20536;-68
2021/07/25 00:29:05;;;;;;;4.53;3.10;;;18.60;98.80;;;;;;5052954;28;20495;-67
2021/07/25 00:31:34;;;;;;;4.30;2.70;;;18.60;98.80;;;;;;5053246;28;20425;-68
2021/07/25 00:34:03;;;;;;;5.70;3.27;;;18.60;98.70;;;;;;5052829;28;20449;-67
2021/07/25 00:36:30;;;;;;;5.10;3.10;;;18.60;98.60;;;;;;5053188;28;20433;-67
2021/07/25 00:38:58;;;;;;;6.50;3.13;;;18.70;98.70;;;;;;5052529;28;20441;-68
2021/07/25 00:41:26;;;;;;;7.53;3.07;;;18.70;98.80;;;;;;5053148;28;20795;-68
2021/07/25 00:43:54;;;;;;;5.13;2.40;;;18.60;98.90;;;;;;5052681;28;20468;-68
2021/07/25 00:46:21;;;;;;;8.60;2.90;;;18.60;99.10;;;;;;5053068;28;20959;-67
2021/07/25 00:48:49;;;;;;;4.97;2.83;;;18.60;99.00;;;;;;5052480;28;20436;-68
2021/07/25 00:51:16;;;;;;;7.57;3.13;;;18.60;98.90;;;;;;5053005;28;20512;-68
2021/07/25 00:53:50;;;;;;;4.90;2.67;;;18.60;98.90;;;;;;5052280;28;20441;-71
2021/07/25 00:56:19;;;;;;;6.37;2.63;;;18.60;99.20;;;;;;5052980;28;20826;-68
2021/07/25 00:58:48;;;;;;;8.03;3.33;;;18.60;99.60;;;;;;5052358;28;20446;-68
2021/07/25 01:01:20;;;;;;;7.10;3.90;;;18.60;99.60;;;;;;5052907;28;20497;-67
2021/07/25 01:03:58;;;;;;;5.07;3.37;;;18.60;99.50;;;;;;5052003;28;20441;-67
2021/07/25 01:06:45;;;;;;;6.00;3.07;;;18.60;99.60;;;;;;5032806;28;20438;-68
2021/07/25 01:09:20;;;;;;;7.93;3.60;;;18.50;99.60;;;;;;5046226;28;20761;-69
2021/07/25 01:11:58;;;;;;;5.30;3.50;;;18.50;99.50;;;;;;5052603;28;20539;-68
2021/07/25 01:14:30;;;;;;;6.23;3.33;;;18.50;99.40;;;;;;5051601;28;20510;-68
2021/07/25 01:17:28;;;;;;;7.00;4.20;;;18.50;99.30;;;;;;5052751;28;20441;-68
2021/07/25 01:19:56;;;;;;;5.97;4.40;;;18.40;99.30;;;;;;5052289;28;20480;-67
2021/07/25 01:22:30;;;;;;;5.00;4.07;;;18.40;99.30;;;;;;5052395;28;20432;-67
2021/07/25 01:25:00;;;;;;;7.63;3.53;;;18.40;99.50;;;;;;5052271;28;21008;-67
2021/07/25 01:27:38;;;;;;;9.27;4.37;;;18.30;99.50;;;;;;5052498;28;20464;-67
2021/07/25 01:30:11;;;;;;;6.60;3.70;;;18.30;99.50;;;;;;5032666;28;20456;-69
2021/07/25 01:32:43;;;;;;;5.10;3.67;;;18.30;99.70;;;;;;5032673;28;20512;-69
2021/07/25 01:35:15;;;;;;;7.40;3.23;;;18.30;99.60;;;;;;5052084;28;20512;-67
2021/07/25 01:37:43;;;;;;;5.10;3.30;;;18.30;99.60;;;;;;5052508;28;20870;-68
2021/07/25 01:40:18;;;;;;;7.10;3.40;;;18.30;99.80;;;;;;5051961;28;20485;-68
2021/07/25 01:42:50;;;;;;;3.87;2.93;;;18.30;99.60;;;;;;5052414;28;20776;-68
2021/07/25 01:45:26;;;;;;;5.50;3.20;;;18.30;99.60;;;;;;5051810;28;20524;-70
2021/07/25 01:48:11;;;;;;;5.70;3.43;;;18.20;99.50;;;;;;5052433;28;20425;-69
2021/07/25 01:50:43;;;;;;;5.40;3.70;;;18.20;99.50;;;;;;5032465;28;20568;-70
2021/07/25 01:53:17;;;;;;;5.20;3.40;;;18.20;99.90;;;;;;5033342;28;20478;-70
2021/07/25 01:55:47;;;;;;;6.87;3.17;;;18.20;99.90;;;;;;5032503;28;20897;-69
2021/07/25 01:58:16;;;;;;;6.10;4.37;;;18.20;99.60;;;;;;5033167;28;20912;-70
2021/07/25 02:00:43;;;;;;;7.30;4.50;;;18.10;99.90;;;;;;5051519;28;20476;-67
2021/07/25 02:03:10;;;;;;;8.30;4.50;;;18.20;99.90;;;;;;5051921;28;20433;-67
2021/07/25 02:05:38;;;;;;;6.30;4.33;;;18.10;99.90;;;;;;5052044;28;20429;-67
2021/07/25 02:08:08;;;;;;;8.40;3.67;;;18.20;99.90;;;;;;5052134;28;21017;-67
2021/07/25 02:10:39;;;;;;;7.87;4.20;;;18.20;99.90;;;;;;5051602;28;20440;-67
2021/07/25 02:13:10;;;;;;;7.37;3.80;;;18.20;99.90;;;;;;5052211;28;20491;-67
2021/07/25 02:15:39;;;;;;;8.47;4.53;;;18.20;99.90;;;;;;5051471;28;20452;-67
2021/07/25 02:18:11;;;;;;;6.40;3.70;;;18.20;99.90;;;;;;5052167;28;20915;-68
2021/07/25 02:20:42;;;;;;;6.20;3.83;;;18.30;99.90;;;;;;5051472;28;20476;-67
2021/07/25 02:23:11;;;;;;;7.23;4.07;;;18.30;99.90;;;;;;5051966;28;20502;-67
2021/07/25 02:25:43;;;;;;;5.00;4.10;;;18.30;99.90;;;;;;5051605;28;20444;-67
2021/07/25 02:28:10;;;;;;;6.57;4.00;;;18.20;99.90;;;;;;5054427;28;20444;-67
2021/07/25 02:30:39;;;;;;;5.73;3.70;;;18.20;99.90;;;;;;5055287;28;20436;-67
2021/07/25 02:33:12;;;;;;;5.63;3.13;;;18.30;99.90;;;;;;5055538;28;20539;-67
2021/07/25 02:35:42;;;;;;;6.40;4.20;;;18.20;99.90;;;;;;5055205;28;20463;-67
2021/07/25 02:38:14;;;;;;;6.70;4.23;;;18.20;99.90;;;;;;5055314;28;20775;-67
2021/07/25 02:40:47;;;;;;;9.10;3.73;;;18.20;99.90;;;;;;5054905;28;20549;-69
2021/07/25 02:43:14;;;;;;;5.33;3.63;;;18.20;99.90;;;;;;5055324;28;20524;-67
2021/07/25 02:45:42;;;;;;;7.13;3.77;;;18.20;99.90;;;;;;5054998;28;20938;-67
2021/07/25 02:48:09;;;;;;;4.47;3.47;;;18.20;99.90;;;;;;5055310;28;20532;-67
2021/07/25 02:50:37;;;;;;;4.57;3.30;;;18.20;99.90;;;;;;5054854;28;20448;-67
2021/07/25 02:53:05;;;;;;;5.80;3.73;;;18.20;99.90;;;;;;5055157;28;20440;-69
2021/07/25 02:55:33;;;;;;;7.63;3.90;;;18.20;99.90;;;;;;5054936;28;20795;-69
2021/07/25 02:58:02;;;;;;;5.30;3.87;;;18.20;99.90;;;;;;5055085;28;20487;-68
2021/07/25 03:00:29;;;;;;;5.60;4.20;;;18.10;99.90;;;;;;5054059;28;20488;-68
2021/07/25 03:02:57;;;;;;;5.40;3.70;;;18.00;99.90;;;;;;5054840;28;20441;-68
2021/07/25 03:05:24;;;;;;;5.43;4.00;;;18.00;99.90;;;;;;5054439;28;20451;-69
2021/07/25 03:07:52;;;;;;;5.30;3.77;;;18.00;99.90;;;;;;5054667;28;20472;-68
2021/07/25 03:10:19;;;;;;;6.23;4.17;;;18.10;99.90;;;;;;5054456;28;20490;-68
2021/07/25 03:12:53;;;;;;;9.93;4.63;;;18.10;99.90;;;;;;5054794;28;20483;-68
2021/07/25 03:15:21;;;;;;;7.03;5.37;;;18.10;99.90;;;;;;5054230;28;20445;-69
2021/07/25 03:17:48;;;;;;;4.80;4.00;;;18.10;99.90;;;;;;5054715;28;20452;-69
2021/07/25 03:20:16;;;;;;;4.50;3.40;;;18.10;99.90;;;;;;5054120;28;20480;-68
2021/07/25 03:22:43;;;;;;;5.47;3.07;;;18.10;99.90;;;;;;5054575;28;20515;-69
2021/07/25 03:25:17;;;;;;;9.43;4.50;;;18.10;99.90;;;;;;5054005;28;20437;-69
2021/07/25 03:27:44;;;;;;;6.40;3.93;;;18.10;99.90;;;;;;5054292;28;20444;-69
2021/07/25 03:30:14;;;;;;;6.40;3.87;;;18.20;99.90;;;;;;5054091;28;20441;-69
2021/07/25 03:32:43;;;;;;;5.40;3.73;;;18.20;99.90;;;;;;5054361;28;20496;-68
2021/07/25 03:35:18;;;;;;;7.50;3.53;;;18.20;99.90;;;;;;5053818;28;20506;-68
2021/07/25 03:37:48;;;;;;;6.57;3.70;;;18.20;99.90;;;;;;5053799;28;20449;-69
2021/07/25 03:40:16;;;;;;;5.70;3.63;;;18.20;99.90;;;;;;5053668;28;20476;-69
2021/07/25 03:42:43;;;;;;;7.63;5.00;;;18.20;99.90;;;;;;5054097;28;20445;-68
2021/07/25 03:45:12;;;;;;;5.97;3.50;;;18.20;99.90;;;;;;5053715;28;20445;-68
2021/07/25 03:47:41;;;;;;;6.93;3.80;;;18.20;99.90;;;;;;5053878;28;20503;-71
2021/07/25 03:50:11;;;;;;;5.70;4.20;;;18.30;99.90;;;;;;5052708;28;20502;-69
2021/07/25 03:52:39;;;;;;;6.10;4.30;;;18.30;99.90;;;;;;5053347;28;20483;-70
2021/07/25 03:55:10;;;;;;;7.00;4.67;;;18.30;99.90;;;;;;5046353;28;20441;-68
2021/07/25 03:57:40;;;;;;;7.20;5.03;;;18.30;99.90;;;;;;5053881;28;20451;-70
2021/07/25 04:00:08;;;;;;;10.43;4.53;;;18.30;99.90;;;;;;5053109;28;20461;-69
2021/07/25 04:02:37;;;;;;;5.50;4.40;;;18.30;99.90;;;;;;5053627;28;20524;-69
2021/07/25 04:05:05;;;;;;;6.70;4.00;;;18.30;99.90;;;;;;5053273;28;20432;-68
2021/07/25 04:07:37;;;;;;;6.03;3.60;;;18.30;99.90;;;;;;5058552;28;20498;-69
2021/07/25 04:10:16;;;;;;;6.30;4.80;;;18.30;99.90;;;;;;5071510;28;20478;-68
2021/07/25 04:12:43;;;;;;;7.10;5.03;;;18.40;99.90;;;;;;5060737;28;20935;-70
2021/07/25 04:15:16;;;;;;;5.67;5.00;;;18.30;99.90;;;;;;5051383;28;20441;-69
2021/07/25 04:17:44;;;;;;;9.30;5.43;;;18.30;99.90;;;;;;5051223;28;20982;-69
2021/07/25 04:20:12;;;;;;;10.50;5.20;;;18.30;99.90;;;;;;5051656;28;20532;-69
2021/07/25 04:22:41;;;;;;;13.73;6.10;;;18.30;99.90;;;;;;5050786;28;20436;-69
2021/07/25 04:25:12;;;;;;;6.77;5.50;;;18.30;99.90;;;;;;5051241;28;20445;-71
2021/07/25 04:27:40;;;;;;;13.60;5.67;;;18.30;99.90;;;;;;5051212;28;20578;-69
2021/07/25 04:30:16;;;;;;;7.93;5.27;;;18.30;99.90;;;;;;5052133;28;20527;-70
2021/07/25 04:33:37;;;;;;;8.50;6.63;;;18.40;99.90;;;;;;5051715;28;20499;-69
2021/07/25 04:36:30;;;;;;;8.20;5.97;;;18.40;99.90;;;;;;5032780;28;20440;-69
2021/07/25 04:39:22;;;;;;;6.90;4.90;;;18.40;99.90;;;;;;5051051;28;20447;-69
2021/07/25 04:42:09;;;;;;;10.03;5.40;;;18.40;99.90;;;;;;5052331;28;20484;-69
2021/07/25 04:44:56;;;;;;;6.80;5.27;;;18.40;99.90;;;;;;5043461;28;20437;-69
2021/07/25 04:47:48;;;;;;;7.50;5.80;;;18.40;99.90;;;;;;5052628;28;20471;-69
2021/07/25 04:50:27;;;;;;;7.40;5.93;;;18.40;99.90;;;;;;5052817;28;20460;-69
2021/07/25 04:53:08;;;;;;;6.97;4.90;;;18.50;99.90;;;;;;5053472;28;20528;-68
2021/07/25 04:56:02;;;;;;;8.43;5.23;;;18.50;99.90;;;;;;5053187;28;20763;-70
2021/07/25 04:59:13;;;;;;;7.90;4.50;;;18.60;99.90;;;;;;5053646;28;20957;-68
2021/07/25 05:02:01;;;;;;;7.90;5.80;;;18.60;99.90;;;;;;5053497;28;20488;-72
2021/07/25 05:04:29;;;;;;;6.50;4.47;;;18.70;99.90;;;;;;5039253;28;20429;-68
2021/07/25 05:06:58;;;;;;;10.43;5.27;;;18.80;99.90;;;;;;5052724;28;20465;-68
2021/07/25 05:09:34;;;;;;;8.60;5.03;;;18.90;99.90;;;;;;5053524;28;20951;-68
2021/07/25 05:15:08;;;;;;;6.30;4.53;;;19.00;99.90;;;;;;5052278;28;20445;-68
2021/07/25 05:17:54;;;;;;;8.90;5.47;;;19.00;99.90;;;;;;5053982;28;20445;-68
2021/07/25 05:20:39;;;;;;;5.90;5.30;;;19.10;99.90;;;;;;5053501;28;20507;-68
2021/07/25 05:23:30;;;;;;;8.13;4.70;;;19.10;99.90;;;;;;5053574;28;20445;-69
2021/07/25 05:26:08;;;;;;;8.27;5.53;;;19.20;99.90;;;;;;5053217;28;20443;-69
2021/07/25 05:28:48;;;;;;;10.20;5.50;;;19.30;99.90;;;;;;5053300;28;20451;-69
2021/07/25 05:31:25;;;;;;;8.50;6.00;;;19.20;99.90;;;;;;5052963;28;20450;-69
2021/07/25 05:34:05;;;;;;;8.37;5.77;;;19.30;99.90;;;;;;5053866;28;20941;-68
2021/07/25 05:36:40;;;;;;;7.00;5.60;;;19.40;99.90;;;;;;5053853;28;20523;-69
2021/07/25 05:39:18;;;;;;;4.97;4.37;;;19.40;99.90;;;;;;5052685;28;20445;-69
2021/07/25 05:42:00;;;;;;;7.23;4.33;;;19.50;99.90;;;;;;5053616;28;20487;-69
2021/07/25 05:44:32;;;;;;;7.20;5.60;;;19.50;99.90;;;;;;5052513;28;20437;-68
2021/07/25 05:47:07;;;;;;;7.60;5.03;;;19.60;99.90;;;;;;5052339;28;20843;-69
2021/07/25 05:49:39;;;;;;;9.47;6.20;;;19.70;99.90;;;;;;5052843;28;20441;-68
2021/07/25 05:52:16;;;;;;;9.83;6.40;;;19.90;99.60;;;;;;5052522;28;20472;-69
2021/07/25 05:54:49;;;;;;;8.70;5.93;;;20.00;99.90;;;;;;5052483;28;20874;-69
2021/07/25 05:57:38;;;;;;;6.57;4.80;;;20.00;99.90;;;;;;5052172;28;20444;-68
2021/07/25 06:00:27;;;;;;;11.20;5.70;;;20.10;99.90;;;;;;5033056;28;20511;-69
2021/07/25 06:03:07;;;;;;;8.13;5.40;;;20.20;99.60;;;;;;5039703;28;20437;-69
2021/07/25 06:05:47;;;;;;;6.60;5.80;;;20.30;99.50;;;;;;5057000;28;20933;-70
2021/07/25 06:08:22;;;;;;;8.33;6.20;;;20.40;99.50;;;;;;5056732;28;20443;-68
2021/07/25 06:11:04;;;;;;;7.37;5.93;;;20.40;99.60;;;;;;5056225;28;20429;-69
2021/07/25 06:13:37;;;;;;;8.33;7.13;;;20.40;99.50;;;;;;5056370;28;20510;-69
2021/07/25 06:16:08;;;;;;;5.93;5.17;;;20.50;99.70;;;;;;5056566;28;20448;-69
2021/07/25 06:18:40;;;;;;;9.77;5.70;;;20.50;99.50;;;;;;5055899;28;20456;-71
2021/07/25 06:21:08;;;;;;;7.63;4.83;;;20.60;99.60;;;;;;5056407;28;20880;-67
2021/07/25 06:23:39;;;;;;;8.27;6.00;;;20.70;99.50;;;;;;5055327;28;20857;-67
2021/07/25 06:26:10;;;;;;;7.80;5.97;;;20.90;99.30;;;;;;5055686;28;20448;-70
2021/07/25 06:28:37;;;;;;;6.40;5.30;;;21.00;99.30;;;;;;5055654;28;20491;-67
2021/07/25 06:31:04;;;;;;;7.70;5.90;;;21.10;98.40;;;;;;5055138;28;20920;-67
2021/07/25 06:33:37;;;;;;;9.10;5.00;;;21.20;98.60;;;;;;5052182;28;20448;-70
2021/07/25 06:36:09;;;;;;;6.13;4.80;;;21.20;99.00;;;;;;5053827;28;20940;-67
2021/07/25 06:38:39;;;;;;;7.60;5.00;;;21.30;98.10;;;;;;5052791;28;20502;-70
2021/07/25 06:41:08;;;;;;;7.10;4.80;;;21.40;98.70;;;;;;5053501;28;20484;-67
2021/07/25 06:43:35;;;;;;;5.90;3.80;;;21.50;97.70;;;;;;5053271;28;20935;-67
2021/07/25 06:46:03;;;;;;;7.00;4.23;;;21.60;96.60;;;;;;5053477;28;20927;-68
2021/07/25 06:48:32;;;;;;;6.00;4.13;;;21.60;96.60;;;;;;5052960;28;20464;-66
2021/07/25 06:51:01;;;;;;;5.83;4.60;;;21.60;96.90;;;;;;5053418;28;20436;-67
2021/07/25 06:53:29;;;;;;;6.50;4.77;;;21.70;97.30;;;;;;5053127;28;20487;-67
2021/07/25 06:55:58;;;;;;;5.73;4.87;;;21.80;97.10;;;;;;5052732;28;20471;-67
2021/07/25 06:58:30;;;;;;;6.43;4.60;;;21.90;96.40;;;;;;5052554;28;20527;-67
2021/07/25 07:00:57;;;;;;;7.00;5.13;;;22.00;96.20;;;;;;5052931;28;20465;-67
2021/07/25 07:03:25;;;;;;;7.03;4.80;;;22.10;95.50;;;;;;5052621;28;20514;-69
2021/07/25 07:05:52;;;;;;;8.30;4.50;;;22.20;95.00;;;;;;5048748;28;20436;-68
2021/07/25 07:08:21;;;;;;;5.70;4.00;;;22.40;95.10;;;;;;5052798;28;20863;-71
2021/07/25 07:10:48;;;;;;;6.60;4.27;;;22.60;94.70;;;;;;5052821;28;20808;-67
2021/07/25 07:13:17;;;;;;;5.30;3.90;;;22.80;93.10;;;;;;5051724;28;20448;-68
2021/07/25 07:15:47;;;;;;;5.67;4.20;;;23.00;94.10;;;;;;5052454;28;20440;-67
2021/07/25 07:18:14;;;;;;;6.27;4.30;;;23.20;94.80;;;;;;5052713;28;20437;-67
2021/07/25 07:20:41;;;;;;;6.10;4.00;;;23.50;94.90;;;;;;5052169;28;20461;-68
2021/07/25 07:23:11;;;;;;;8.87;4.10;;;23.70;92.50;;;;;;5048106;28;20512;-68
2021/07/25 07:25:40;;;;;;;7.70;4.73;;;23.70;91.40;;;;;;5052360;28;20444;-68
2021/07/25 07:28:07;;;;;;;5.47;4.37;;;23.70;90.10;;;;;;5052859;28;20437;-67
2021/07/25 07:30:35;;;;;;;7.50;4.10;;;23.80;90.60;;;;;;5052099;28;20449;-67
2021/07/25 07:33:11;;;;;;;6.27;4.00;;;23.80;90.50;;;;;;5053155;28;20503;-67
2021/07/25 07:35:43;;;;;;;8.17;4.00;;;23.90;90.70;;;;;;5052472;28;20927;-69
2021/07/25 07:38:11;;;;;;;5.60;3.97;;;24.10;91.30;;;;;;5049082;28;20449;-68
2021/07/25 07:40:40;;;;;;;7.90;4.10;;;24.20;91.20;;;;;;5053182;28;20505;-69
2021/07/25 07:43:08;;;;;;;5.40;3.63;;;24.20;90.90;;;;;;5052927;28;20962;-68
2021/07/25 07:45:37;;;;;;;6.07;4.30;;;24.20;90.70;;;;;;5051790;28;20441;-68
2021/07/25 07:48:04;;;;;;;6.83;4.40;;;24.30;91.80;;;;;;5053010;28;20461;-67
2021/07/25 07:50:33;;;;;;;5.20;4.20;;;24.30;91.50;;;;;;5051834;28;20466;-67
2021/07/25 07:53:00;;;;;;;9.07;4.83;;;24.30;91.00;;;;;;5052070;28;20439;-68
2021/07/25 07:55:27;;;;;;;5.53;4.20;;;24.30;90.60;;;;;;5052249;28;20456;-66
2021/07/25 07:57:54;;;;;;;6.43;4.47;;;24.30;90.60;;;;;;5052306;28;20441;-67
2021/07/25 08:00:33;;;;;;;5.60;4.23;;;24.30;91.00;;;;;;5051953;28;20860;-67
2021/07/25 08:03:00;;;;;;;8.13;4.80;;;24.40;91.60;;;;;;5052330;28;20557;-67
2021/07/25 08:05:27;;;;;;;6.17;4.70;;;24.40;91.60;;;;;;5051973;28;20520;-67
2021/07/25 08:07:55;;;;;;;5.90;4.50;;;24.40;91.40;;;;;;5051752;28;20473;-68
2021/07/25 08:10:22;;;;;;;5.90;4.30;;;24.40;91.70;;;;;;5047416;28;20442;-67
2021/07/25 08:12:50;;;;;;;6.80;4.80;;;24.40;91.80;;;;;;5052212;28;20936;-68
2021/07/25 08:15:18;;;;;;;8.20;4.30;;;24.40;91.40;;;;;;5052102;28;20442;-67
2021/07/25 08:17:45;;;;;;;5.23;4.33;;;24.40;91.20;;;;;;5051091;28;20525;-68
2021/07/25 08:20:13;;;;;;;7.57;5.00;;;24.30;91.10;;;;;;5049014;28;20437;-67
2021/07/25 08:22:40;;;;;;;5.73;4.33;;;24.30;91.10;;;;;;5051835;28;20492;-67
2021/07/25 08:25:15;;;;;;;5.80;4.60;;;24.30;91.00;;;;;;5051794;28;20478;-67
2021/07/25 08:27:42;;;;;;;8.17;4.43;;;24.20;91.00;;;;;;5047566;28;20832;-68
2021/07/25 08:30:10;;;;;;;8.57;4.93;;;24.10;91.30;;;;;;5052186;28;20461;-69
2021/07/25 08:32:37;;;;;;;6.27;4.53;;;24.10;91.30;;;;;;5051845;28;20433;-69
2021/07/25 08:35:05;;;;;;;11.13;5.50;;;24.10;91.30;;;;;;5050965;28;20507;-70
2021/07/25 08:37:32;;;;;;;7.43;4.70;;;24.10;91.10;;;;;;5047898;28;20489;-66
2021/07/25 08:40:01;;;;;;;6.20;5.57;;;24.10;91.40;;;;;;5051353;28;20445;-69
2021/07/25 08:42:36;;;;;;;8.30;5.07;;;24.10;91.30;;;;;;5051646;28;20489;-69
2021/07/25 08:45:04;;;;;;;7.77;5.53;;;24.10;91.30;;;;;;5051055;28;20444;-69
2021/07/25 08:47:41;;;;;;;7.17;5.07;;;24.10;91.60;;;;;;5051678;28;20837;-69
2021/07/25 08:50:15;;;;;;;7.63;4.60;;;24.10;91.30;;;;;;5051142;28;20429;-69
2021/07/25 08:52:45;;;;;;;6.23;5.10;;;24.00;91.40;;;;;;5051595;28;20464;-70
2021/07/25 08:55:19;;;;;;;6.57;5.17;;;24.00;91.50;;;;;;5050874;28;20466;-71
2021/07/25 08:57:50;;;;;;;5.70;4.77;;;24.00;91.40;;;;;;5047724;28;20442;-70
2021/07/25 09:00:23;;;;;;;6.33;5.00;;;24.00;91.10;;;;;;5051241;28;20461;-69
2021/07/25 09:02:51;;;;;;;6.50;5.40;;;24.00;90.90;;;;;;5050956;28;20484;-69
2021/07/25 09:05:20;;;;;;;8.23;5.07;;;24.00;90.90;;;;;;5048666;28;20448;-69
2021/07/25 09:07:48;;;;;;;11.20;5.50;;;24.10;91.10;;;;;;5051030;28;20962;-69
2021/07/25 09:10:19;;;;;;;6.70;5.43;;;24.10;91.00;;;;;;5050659;28;20499;-69
2021/07/25 09:12:50;;;;;;;5.37;4.53;;;24.10;90.80;;;;;;5051124;28;20510;-73
2021/07/25 09:15:22;;;;;;;7.03;4.70;;;24.10;91.20;;;;;;5050093;28;20949;-69
2021/07/25 09:17:49;;;;;;;6.23;4.10;;;24.20;91.10;;;;;;5046542;28;20805;-66
2021/07/25 09:20:22;;;;;;;6.07;4.63;;;24.20;91.50;;;;;;5050990;28;21011;-66
2021/07/25 09:23:14;;;;;;;6.10;4.17;;;24.30;90.60;;;;;;5050633;28;20489;-67
2021/07/25 09:25:48;;;;;;;7.60;4.90;;;24.40;90.10;;;;;;5048915;28;20437;-67
2021/07/25 09:28:25;;;;;;;7.47;4.57;;;24.40;89.30;;;;;;5047064;28;20434;-66
2021/07/25 09:30:53;;;;;;;5.77;3.63;;;24.40;89.20;;;;;;5051198;28;20441;-67
2021/07/25 09:33:38;;;;;;;7.73;5.20;;;24.60;90.10;;;;;;5050554;28;20495;-66
2021/07/25 09:36:17;;;;;;;5.20;4.30;;;24.80;89.50;;;;;;5052231;28;20436;-68
2021/07/25 09:38:45;;;;;;;7.90;3.67;;;25.00;87.50;;;;;;5051623;28;20439;-67
2021/07/25 09:41:23;;;;;;;6.10;3.93;;;25.20;85.30;;;;;;5055139;28;20467;-66
2021/07/25 09:44:16;;;;;;;6.60;3.27;;;25.40;83.40;;;;;;5054860;28;20527;-67
2021/07/25 09:46:50;;;;;;;6.10;3.90;;;25.60;83.10;;;;;;5051331;28;20436;-67
2021/07/25 09:49:24;;;;;;;4.90;3.90;;;25.80;81.80;;;;;;5054701;28;20450;-66
2021/07/25 09:51:51;;;;;;;5.47;3.47;;;26.00;80.80;;;;;;5050651;28;20451;-67
2021/07/25 09:54:25;;;;;;;5.00;3.43;;;26.20;79.40;;;;;;5054676;28;20439;-67
2021/07/25 09:56:52;;;;;;;5.50;3.73;;;26.30;76.60;;;;;;5053734;28;20927;-68
2021/07/25 09:59:27;;;;;;;5.10;3.67;;;26.40;76.40;;;;;;5050246;28;20435;-67
2021/07/25 10:01:54;;;;;;;6.23;3.33;;;26.50;77.20;;;;;;5054094;28;20456;-67
2021/07/25 10:04:26;;;;;;;7.30;4.03;;;26.80;74.90;;;;;;5054444;28;20916;-67
2021/07/25 10:06:55;;;;;;;7.37;3.53;;;26.90;75.00;;;;;;5050724;28;20922;-68
2021/07/25 10:09:25;;;;;;;5.07;3.57;;;27.10;72.90;;;;;;5054165;28;20939;-66
2021/07/25 10:11:55;;;;;;;6.80;3.80;;;27.10;70.90;;;;;;5053978;28;20428;-68
2021/07/25 10:14:23;;;;;;;4.40;3.10;;;27.20;72.20;;;;;;5054394;28;20992;-67
2021/07/25 10:16:57;;;;;;;4.50;3.60;;;27.20;72.70;;;;;;5053868;28;20469;-68
2021/07/25 10:19:28;;;;;;;7.33;3.90;;;27.20;72.00;;;;;;5053618;28;20440;-67
2021/07/25 10:21:59;;;;;;;4.60;3.97;;;27.30;70.90;;;;;;5053932;28;20542;-67
2021/07/25 10:24:32;;;;;;;5.27;3.30;;;27.20;68.60;;;;;;5054305;28;20452;-67
2021/07/25 10:27:02;;;;;;;4.93;3.30;;;27.10;69.80;;;;;;5050100;28;20464;-67
2021/07/25 10:29:30;;;;;;;4.57;3.23;;;27.10;68.10;;;;;;5054085;28;20440;-67
2021/07/25 10:31:59;;;;;;;6.03;3.10;;;27.10;68.10;;;;;;5053914;28;20954;-72
2021/07/25 10:34:28;;;;;;;4.67;3.60;;;27.20;66.60;;;;;;5053735;28;20425;-67
2021/07/25 10:36:55;;;;;;;6.00;3.40;;;27.20;67.10;;;;;;5053904;28;21397;-68
2021/07/25 10:39:27;;;;;;;4.37;2.73;;;27.20;68.60;;;;;;5053399;28;20490;-67
2021/07/25 10:41:59;;;;;;;3.57;2.87;;;27.20;66.80;;;;;;5053601;28;20444;-67
2021/07/25 10:44:26;;;;;;;4.13;3.07;;;27.20;66.70;;;;;;5053578;28;20862;-67
2021/07/25 10:47:20;;;;;;;3.30;2.77;;;27.20;66.00;;;;;;5053202;28;20441;-70
2021/07/25 10:50:05;;;;;;;4.50;2.70;;;27.20;64.90;;;;;;5053581;28;20483;-67
2021/07/25 10:53:00;;;;;;;4.17;2.73;;;27.10;64.00;;;;;;5050432;28;20476;-67
2021/07/25 10:55:48;;;;;;;4.97;3.33;;;27.10;64.60;;;;;;5053554;28;20429;-68
2021/07/25 10:58:18;;;;;;;4.67;2.80;;;26.90;66.30;;;;;;5053003;28;20437;-67
2021/07/25 11:00:50;;;;;;;6.83;3.13;;;26.80;67.30;;;;;;5053292;28;20975;-67
2021/07/25 11:03:45;;;;;;;4.47;2.53;;;26.70;67.00;;;;;;5053197;28;20472;-67
2021/07/25 11:06:22;;;;;;;5.03;2.80;;;26.70;65.90;;;;;;5048941;28;20472;-68
2021/07/25 11:08:52;;;;;;;4.47;3.30;;;26.60;66.30;;;;;;5049754;28;20927;-68
2021/07/25 11:11:57;;;;;;;4.23;3.73;;;26.60;67.30;;;;;;5050585;28;20818;-67
2021/07/25 11:15:09;;;;;;;4.50;3.10;;;26.50;67.20;;;;;;5050801;28;20437;-67
2021/07/25 11:17:53;;;;;;;7.60;3.27;;;26.40;67.70;;;;;;5050817;28;20436;-68
2021/07/25 11:20:36;;;;;;;4.73;3.80;;;26.50;68.20;;;;;;5050760;28;20772;-67
2021/07/25 11:23:05;;;;;;;4.20;2.90;;;26.50;67.30;;;;;;5049661;28;20480;-67
2021/07/25 11:25:34;;;;;;;6.90;3.27;;;26.60;68.50;;;;;;5051966;28;20456;-67
2021/07/25 11:28:03;;;;;;;4.40;3.47;;;26.70;68.00;;;;;;5051057;28;20435;-68
2021/07/25 11:31:08;;;;;;;6.83;4.33;;;27.00;67.70;;;;;;5051615;28;20479;-67
2021/07/25 11:34:01;;;;;;;5.17;3.20;;;27.30;67.30;;;;;;5049325;28;20442;-71
2021/07/25 11:36:30;;;;;;;4.20;3.17;;;27.60;64.70;;;;;;5049969;28;20445;-69
2021/07/25 11:39:00;;;;;;;6.10;3.67;;;27.70;64.50;;;;;;5050601;28;20440;-68
2021/07/25 11:41:29;;;;;;;6.20;3.73;;;28.00;64.50;;;;;;5051043;28;20451;-67
2021/07/25 11:44:01;;;;;;;5.40;3.87;;;28.00;64.00;;;;;;5048371;28;20890;-68
2021/07/25 11:46:32;;;;;;;5.53;4.50;;;28.10;60.40;;;;;;5048818;28;20449;-72
2021/07/25 11:49:08;;;;;;;3.90;3.10;;;28.00;62.40;;;;;;5049099;28;20811;-67
2021/07/25 11:51:39;;;;;;;6.73;3.47;;;27.90;62.20;;;;;;5049294;28;20476;-69
2021/07/25 11:54:07;;;;;;;6.07;3.60;;;27.80;61.30;;;;;;5048779;28;20433;-68
2021/07/25 11:56:35;;;;;;;6.07;3.53;;;27.70;61.20;;;;;;5049354;28;20449;-68
2021/07/25 11:59:05;;;;;;;6.03;3.30;;;27.60;61.70;;;;;;5049415;28;20961;-68
2021/07/25 12:01:32;;;;;;;6.37;4.30;;;27.40;62.80;;;;;;5048405;28;20488;-70
2021/07/25 12:04:03;;;;;;;5.57;3.80;;;27.30;64.30;;;;;;5049200;28;20845;-69
2021/07/25 12:06:30;;;;;;;7.10;3.87;;;27.10;63.60;;;;;;5044927;28;20437;-68
2021/07/25 12:09:12;;;;;;;7.40;3.67;;;27.00;66.60;;;;;;5047800;28;20441;-67
2021/07/25 12:11:41;;;;;;;4.33;3.13;;;26.90;65.10;;;;;;5047770;28;20930;-67
2021/07/25 12:14:11;;;;;;;5.83;3.77;;;26.70;64.80;;;;;;5049094;28;20491;-69
2021/07/25 12:16:45;;;;;;;5.87;4.57;;;26.50;65.00;;;;;;5047651;28;20444;-75
2021/07/25 12:19:14;;;;;;;4.90;3.53;;;26.40;66.60;;;;;;5048237;28;20446;-68
2021/07/25 12:21:43;;;;;;;5.17;4.10;;;26.20;68.10;;;;;;5048529;28;20534;-69
2021/07/25 12:24:28;;;;;;;5.60;4.17;;;26.10;68.00;;;;;;5048233;28;20476;-67
2021/07/25 12:26:57;;;;;;;6.47;3.73;;;26.00;70.20;;;;;;5047883;28;20431;-68
2021/07/25 12:29:41;;;;;;;4.67;3.97;;;25.90;70.00;;;;;;5048260;28;20436;-69
2021/07/25 12:32:38;;;;;;;5.40;3.67;;;25.90;70.60;;;;;;5049098;28;20923;-67
2021/07/25 12:35:23;;;;;;;4.63;3.47;;;25.90;70.50;;;;;;5012182;28;20455;-67
2021/07/25 12:37:55;;;;;;;5.00;2.93;;;25.90;70.30;;;;;;5048124;28;20487;-69
2021/07/25 12:40:26;;;;;;;5.70;3.77;;;25.90;71.10;;;;;;5046669;28;20538;-67
2021/07/25 12:43:08;;;;;;;12.43;4.13;;;25.90;70.40;;;;;;5046660;28;21321;-69
2021/07/25 12:45:44;;;;;;;4.50;3.30;;;25.90;70.50;;;;;;5048273;28;21603;-68
2021/07/25 12:48:28;;;;;;;6.37;5.10;;;25.80;69.50;;;;;;5047890;28;20487;-70
2021/07/25 12:51:08;;;;;;;5.33;3.53;;;25.80;69.90;;;;;;5046696;28;20527;-67
2021/07/25 12:53:47;;;;;;;7.20;3.63;;;25.80;69.60;;;;;;5048475;28;20506;-68
2021/07/25 12:56:17;;;;;;;5.23;3.73;;;25.80;70.30;;;;;;5046915;28;20448;-68
2021/07/25 12:58:46;;;;;;;5.87;3.40;;;25.90;69.90;;;;;;5048566;28;20475;-67
2021/07/25 13:03:55;;;;;;;5.13;4.27;;;26.00;70.10;;;;;;5048903;28;20476;-67
2021/07/25 13:06:24;;;;;;;6.07;3.80;;;26.10;71.80;;;;;;5049737;28;20453;-68
2021/07/25 13:08:53;;;;;;;8.27;3.97;;;26.20;70.70;;;;;;5049326;28;20963;-67
2021/07/25 13:11:23;;;;;;;4.30;3.37;;;26.20;71.30;;;;;;5046107;28;20449;-70
2021/07/25 13:13:51;;;;;;;4.97;3.10;;;26.20;70.40;;;;;;5045390;28;20476;-68
2021/07/25 13:16:19;;;;;;;4.93;3.50;;;26.20;70.00;;;;;;5049456;28;20443;-67
2021/07/25 13:18:49;;;;;;;5.50;4.13;;;26.20;68.50;;;;;;5048957;28;20583;-68
2021/07/25 13:21:17;;;;;;;5.13;3.53;;;26.20;69.20;;;;;;5047926;28;20860;-67